createdAt,value
2019-05-26T00:00:08.720Z,71.79
2019-05-26T00:02:38.132Z,72.56
2019-05-26T00:05:08.473Z,73.28
2019-05-26T00:07:37.887Z,73.45
2019-05-26T00:10:08.475Z,73.52
2019-05-26T00:12:37.965Z,73.69
2019-05-26T00:15:07.591Z,72.90
2019-05-26T00:17:37.007Z,72.46
2019-05-26T00:20:08.448Z,72.70
2019-05-26T00:22:37.860Z,73.02
2019-05-26T00:25:08.208Z,73.47
2019-05-26T00:27:37.725Z,73.60
2019-05-26T00:30:08.452Z,73.93
2019-05-26T00:32:38.221Z,73.99
2019-05-26T00:35:08.082Z,74.21
2019-05-26T00:37:48.296Z,74.54
2019-05-26T00:40:09.130Z,74.43
2019-05-26T00:42:39.072Z,74.46
2019-05-26T00:45:09.211Z,74.58
2019-05-26T00:47:38.619Z,74.59
2019-05-26T00:50:08.863Z,74.83
2019-05-26T00:52:38.830Z,74.99
2019-05-26T00:55:09.072Z,75.28
2019-05-26T00:57:38.859Z,75.63
2019-05-26T01:00:11.829Z,75.88
2019-05-26T01:02:41.422Z,76.00
2019-05-26T01:05:11.741Z,75.90
2019-05-26T01:07:41.158Z,75.79
2019-05-26T01:10:11.184Z,75.81
2019-05-26T01:12:40.596Z,75.74
2019-05-26T01:15:10.824Z,75.99
2019-05-26T01:17:40.272Z,76.16
2019-05-26T01:20:10.464Z,76.35
2019-05-26T01:22:39.879Z,76.23
2019-05-26T01:25:09.518Z,76.52
2019-05-26T01:27:38.944Z,76.82
2019-05-26T01:30:10.156Z,76.77
2019-05-26T01:32:39.574Z,76.69
2019-05-26T01:35:09.035Z,76.75
2019-05-26T01:37:40.007Z,76.83
2019-05-26T01:40:09.954Z,77.19
2019-05-26T01:42:39.467Z,77.18
2019-05-26T01:45:09.211Z,77.35
2019-05-26T01:47:38.638Z,77.35
2019-05-26T01:50:08.360Z,77.41
2019-05-26T01:52:37.757Z,76.80
2019-05-26T01:55:07.245Z,77.31
2019-05-26T01:57:36.912Z,77.62
2019-05-26T02:00:10.632Z,77.36
2019-05-26T02:02:40.021Z,77.62
2019-05-26T02:05:09.607Z,77.34
2019-05-26T02:07:39.018Z,76.94
2019-05-26T02:10:08.658Z,76.71
2019-05-26T02:12:38.055Z,76.77
2019-05-26T02:15:08.000Z,75.38
2019-05-26T02:17:37.478Z,75.30
2019-05-26T02:20:07.826Z,74.74
2019-05-26T02:22:37.232Z,74.27
2019-05-26T02:25:10.198Z,74.64
2019-05-26T02:27:39.599Z,75.23
2019-05-26T02:30:09.854Z,75.57
2019-05-26T02:32:39.312Z,75.84
2019-05-26T02:35:09.373Z,76.39
2019-05-26T02:37:38.929Z,76.54
2019-05-26T02:40:09.272Z,76.59
2019-05-26T02:42:39.113Z,76.72
2019-05-26T02:45:14.880Z,76.91
2019-05-26T02:47:45.589Z,77.22
2019-05-26T02:50:15.936Z,77.14
2019-05-26T02:52:45.398Z,77.02
2019-05-26T02:55:15.972Z,76.82
2019-05-26T02:57:45.436Z,76.48
2019-05-26T03:00:16.828Z,76.31
2019-05-26T03:02:46.300Z,76.42
2019-05-26T03:05:16.054Z,76.48
2019-05-26T03:07:45.451Z,76.54
2019-05-26T03:10:15.502Z,76.96
2019-05-26T03:12:46.844Z,77.17
2019-05-26T03:15:18.187Z,77.37
2019-05-26T03:17:49.805Z,77.21
2019-05-26T03:20:19.544Z,77.40
2019-05-26T03:22:49.434Z,77.48
2019-05-26T03:25:18.911Z,77.67
2019-05-26T03:27:48.420Z,77.71
2019-05-26T03:30:18.107Z,77.69
2019-05-26T03:32:47.642Z,77.87
2019-05-26T03:35:17.062Z,78.22
2019-05-26T03:37:46.458Z,78.83
2019-05-26T03:40:16.116Z,79.18
2019-05-26T03:42:45.510Z,79.07
2019-05-26T03:45:36.071Z,79.10
2019-05-26T03:48:05.478Z,79.55
2019-05-26T03:50:34.905Z,80.37
2019-05-26T03:53:04.472Z,80.22
2019-05-26T03:55:33.889Z,80.09
2019-05-26T03:58:03.367Z,80.08
2019-05-26T04:00:32.781Z,81.22
2019-05-26T04:03:02.183Z,81.42
2019-05-26T04:05:31.615Z,81.42
2019-05-26T04:08:04.442Z,81.26
2019-05-26T04:10:32.224Z,81.39
2019-05-26T04:13:01.618Z,80.78
2019-05-26T04:15:31.184Z,80.18
2019-05-26T04:18:00.609Z,79.74
2019-05-26T04:20:30.008Z,79.14
2019-05-26T04:22:59.426Z,78.72
2019-05-26T04:25:28.843Z,78.27
2019-05-26T04:27:58.259Z,77.61
2019-05-26T04:30:27.637Z,77.25
2019-05-26T04:32:57.072Z,77.09
2019-05-26T04:35:26.470Z,76.89
2019-05-26T04:37:55.883Z,76.84
2019-05-26T04:40:27.653Z,76.97
2019-05-26T04:42:56.403Z,76.69
2019-05-26T04:45:25.803Z,76.85
2019-05-26T04:47:55.237Z,76.78
2019-05-26T04:50:24.713Z,76.55
2019-05-26T04:53:06.094Z,76.33
2019-05-26T04:55:25.292Z,76.30
2019-05-26T04:57:54.714Z,75.98
2019-05-26T05:00:24.263Z,75.77
2019-05-26T05:02:53.694Z,75.55
2019-05-26T05:05:23.093Z,75.43
2019-05-26T05:07:52.506Z,75.17
2019-05-26T05:10:21.918Z,74.96
2019-05-26T05:12:51.388Z,74.86
2019-05-26T05:15:20.859Z,74.66
2019-05-26T05:17:50.295Z,74.13
2019-05-26T05:20:19.700Z,73.02
2019-05-26T05:22:49.191Z,72.05
2019-05-26T05:25:18.564Z,71.04
2019-05-26T05:27:47.984Z,70.62
2019-05-26T05:30:19.129Z,70.04
2019-05-26T05:32:48.545Z,69.78
2019-05-26T05:35:18.597Z,68.87
2019-05-26T05:37:48.014Z,68.44
2019-05-26T05:40:17.974Z,67.88
2019-05-26T05:42:47.391Z,68.01
2019-05-26T05:45:17.032Z,67.63
2019-05-26T05:47:46.460Z,66.80
2019-05-26T05:50:16.686Z,65.85
2019-05-26T05:52:46.103Z,66.43
2019-05-26T05:55:15.632Z,66.43
2019-05-26T05:57:45.177Z,65.92
2019-05-26T06:00:15.509Z,65.14
2019-05-26T06:02:44.931Z,64.70
2019-05-26T06:05:14.494Z,64.37
2019-05-26T06:07:43.922Z,63.63
2019-05-26T06:10:13.758Z,62.99
2019-05-26T06:12:43.187Z,63.43
2019-05-26T06:15:16.243Z,62.97
2019-05-26T06:17:45.999Z,62.16
2019-05-26T06:20:15.794Z,61.19
2019-05-26T06:22:45.302Z,60.79
2019-05-26T06:25:14.953Z,61.47
2019-05-26T06:27:44.371Z,60.19
2019-05-26T06:30:14.215Z,60.69
2019-05-26T06:32:43.637Z,60.36
2019-05-26T06:35:13.989Z,59.18
2019-05-26T06:37:43.431Z,60.01
2019-05-26T06:40:14.276Z,60.02
2019-05-26T06:42:43.736Z,59.53
2019-05-26T06:45:13.411Z,59.91
2019-05-26T06:47:42.833Z,59.38
2019-05-26T06:50:13.185Z,57.55
2019-05-26T06:52:42.622Z,58.20
2019-05-26T06:55:12.369Z,58.21
2019-05-26T06:57:41.804Z,57.21
2019-05-26T07:00:11.637Z,56.34
2019-05-26T07:02:41.135Z,56.36
2019-05-26T07:05:10.882Z,55.03
2019-05-26T07:07:40.294Z,52.56
2019-05-26T07:10:10.045Z,52.79
2019-05-26T07:12:39.456Z,50.02
2019-05-26T07:15:09.802Z,50.02
2019-05-26T07:17:39.215Z,49.24
2019-05-26T07:20:09.445Z,50.22
2019-05-26T07:22:38.886Z,51.31
2019-05-26T07:25:09.530Z,51.40
2019-05-26T07:27:38.976Z,49.92
2019-05-26T07:30:09.222Z,49.94
2019-05-26T07:32:38.706Z,50.74
2019-05-26T07:35:08.458Z,49.07
2019-05-26T07:37:37.887Z,49.46
2019-05-26T07:40:07.646Z,50.40
2019-05-26T07:42:37.060Z,51.37
2019-05-26T07:45:07.214Z,49.68
2019-05-26T07:47:36.711Z,49.86
2019-05-26T07:50:09.559Z,48.36
2019-05-26T07:52:38.977Z,48.16
2019-05-26T07:55:08.818Z,47.43
2019-05-26T07:57:38.507Z,47.18
2019-05-26T08:00:09.078Z,47.32
2019-05-26T08:02:38.500Z,46.54
2019-05-26T08:05:08.442Z,47.12
2019-05-26T08:07:37.864Z,45.25
2019-05-26T08:10:08.318Z,47.48
2019-05-26T08:12:37.746Z,46.02
2019-05-26T08:15:07.797Z,44.47
2019-05-26T08:17:37.239Z,43.28
2019-05-26T08:20:10.661Z,43.43
2019-05-26T08:22:40.104Z,42.18
2019-05-26T08:25:09.927Z,41.58
2019-05-26T08:27:39.352Z,41.49
2019-05-26T08:30:10.701Z,40.37
2019-05-26T08:32:40.128Z,40.81
2019-05-26T08:35:09.612Z,40.11
2019-05-26T08:37:39.021Z,38.93
2019-05-26T08:40:10.157Z,39.68
2019-05-26T08:42:44.417Z,40.33
2019-05-26T08:45:10.712Z,38.40
2019-05-26T08:47:40.129Z,37.46
2019-05-26T08:50:09.801Z,36.67
2019-05-26T08:52:39.309Z,36.89
2019-05-26T08:55:09.212Z,36.67
2019-05-26T08:57:38.631Z,35.21
2019-05-26T09:00:08.593Z,34.44
2019-05-26T09:02:38.003Z,35.23
2019-05-26T09:05:10.555Z,33.38
2019-05-26T09:07:39.964Z,33.52
2019-05-26T09:10:09.768Z,32.43
2019-05-26T09:12:39.179Z,33.08
2019-05-26T09:15:09.143Z,33.60
2019-05-26T09:17:38.550Z,31.06
2019-05-26T09:20:11.638Z,31.49
2019-05-26T09:22:40.533Z,30.95
2019-05-26T09:25:11.118Z,29.81
2019-05-26T09:27:40.512Z,28.55
2019-05-26T09:30:10.672Z,28.36
2019-05-26T09:32:40.081Z,26.35
2019-05-26T09:35:09.648Z,25.43
2019-05-26T09:37:39.113Z,24.53
2019-05-26T09:40:09.111Z,24.26
2019-05-26T09:42:38.502Z,24.01
2019-05-26T09:45:09.858Z,23.49
2019-05-26T09:47:39.334Z,22.88
2019-05-26T09:50:09.494Z,21.50
2019-05-26T09:52:38.887Z,20.31
2019-05-26T09:55:10.054Z,19.42
2019-05-26T09:57:39.474Z,18.82
2019-05-26T10:00:10.221Z,19.23
2019-05-26T10:02:39.667Z,17.82
2019-05-26T10:05:10.246Z,18.86
2019-05-26T10:07:39.659Z,18.17
2019-05-26T10:10:09.905Z,17.46
2019-05-26T10:12:39.385Z,18.49
2019-05-26T10:15:10.252Z,18.59
2019-05-26T10:17:40.995Z,17.79
2019-05-26T10:20:12.377Z,16.89
2019-05-26T10:22:41.853Z,16.34
2019-05-26T10:25:11.619Z,15.33
2019-05-26T10:27:41.060Z,16.16
2019-05-26T10:30:13.036Z,17.02
2019-05-26T10:32:42.487Z,17.75
2019-05-26T10:35:12.652Z,16.28
2019-05-26T10:37:42.054Z,17.32
2019-05-26T10:40:12.207Z,16.53
2019-05-26T10:42:41.615Z,16.03
2019-05-26T10:45:11.289Z,14.29
2019-05-26T10:47:40.692Z,13.73
2019-05-26T10:50:11.002Z,13.87
2019-05-26T10:52:40.417Z,13.40
2019-05-26T10:55:10.458Z,13.51
2019-05-26T10:57:40.089Z,12.45
2019-05-26T11:00:11.546Z,12.22
2019-05-26T11:02:40.936Z,11.59
2019-05-26T11:05:10.995Z,12.29
2019-05-26T11:07:40.384Z,11.53
2019-05-26T11:10:10.636Z,11.23
2019-05-26T11:12:40.042Z,12.24
2019-05-26T11:15:10.309Z,13.05
2019-05-26T11:17:39.712Z,12.49
2019-05-26T11:20:10.006Z,13.66
2019-05-26T11:22:39.493Z,14.22
2019-05-26T11:25:09.354Z,12.88
2019-05-26T11:27:38.819Z,12.50
2019-05-26T11:30:12.352Z,12.74
2019-05-26T11:32:41.909Z,13.17
2019-05-26T11:35:11.968Z,13.67
2019-05-26T11:37:41.426Z,14.97
2019-05-26T11:40:11.484Z,15.64
2019-05-26T11:42:44.420Z,12.43
2019-05-26T11:45:12.566Z,12.09
2019-05-26T11:47:41.945Z,12.84
2019-05-26T11:50:12.015Z,12.17
2019-05-26T11:52:41.430Z,12.54
2019-05-26T11:55:11.964Z,12.48
2019-05-26T11:57:41.381Z,12.16
2019-05-26T12:00:14.627Z,14.14
2019-05-26T12:02:45.559Z,14.78
2019-05-26T12:05:17.757Z,14.39
2019-05-26T12:07:46.566Z,12.79
2019-05-26T12:10:18.013Z,12.31
2019-05-26T12:12:47.431Z,11.84
2019-05-26T12:15:17.568Z,11.41
2019-05-26T12:17:47.028Z,12.81
2019-05-26T12:20:17.403Z,17.06
2019-05-26T12:22:46.921Z,19.77
2019-05-26T12:25:16.657Z,21.67
2019-05-26T12:27:46.063Z,21.14
2019-05-26T12:30:17.202Z,20.52
2019-05-26T12:32:46.619Z,19.53
2019-05-26T12:35:16.945Z,18.90
2019-05-26T12:37:48.360Z,19.76
2019-05-26T12:40:17.794Z,19.66
2019-05-26T12:42:47.290Z,21.77
2019-05-26T12:45:17.916Z,23.47
2019-05-26T12:47:47.396Z,21.64
2019-05-26T12:50:16.975Z,22.42
2019-05-26T12:52:46.393Z,22.51
2019-05-26T12:55:17.161Z,23.27
2019-05-26T12:57:46.582Z,23.45
2019-05-26T13:00:17.097Z,23.93
2019-05-26T13:02:46.819Z,24.53
2019-05-26T13:05:17.019Z,22.91
2019-05-26T13:07:46.437Z,22.63
2019-05-26T13:10:16.476Z,22.15
2019-05-26T13:12:45.905Z,21.46
2019-05-26T13:15:15.732Z,21.83
2019-05-26T13:17:45.273Z,23.73
2019-05-26T13:20:15.882Z,22.65
2019-05-26T13:22:45.313Z,22.65
2019-05-26T13:25:15.339Z,23.09
2019-05-26T13:27:44.826Z,23.09
2019-05-26T13:30:17.272Z,22.88
2019-05-26T13:32:46.708Z,25.12
2019-05-26T13:35:16.538Z,24.52
2019-05-26T13:37:46.015Z,24.19
2019-05-26T13:40:16.158Z,22.34
2019-05-26T13:42:45.577Z,23.53
2019-05-26T13:45:22.437Z,23.00
2019-05-26T13:47:47.049Z,23.39
2019-05-26T13:50:17.171Z,22.96
2019-05-26T13:52:46.573Z,24.50
2019-05-26T13:55:16.270Z,25.46
2019-05-26T13:57:49.227Z,26.05
2019-05-26T14:00:17.481Z,25.69
2019-05-26T14:02:47.210Z,25.54
2019-05-26T14:05:16.933Z,25.69
2019-05-26T14:07:46.328Z,24.77
2019-05-26T14:10:18.915Z,24.85
2019-05-26T14:12:48.580Z,26.32
2019-05-26T14:15:19.044Z,26.62
2019-05-26T14:17:49.189Z,26.96
2019-05-26T14:20:21.728Z,28.00
2019-05-26T14:22:51.168Z,27.82
2019-05-26T14:25:20.637Z,27.02
2019-05-26T14:27:50.166Z,26.34
2019-05-26T14:30:19.695Z,26.14
2019-05-26T14:32:49.116Z,25.66
2019-05-26T14:35:18.512Z,25.58
2019-05-26T14:37:47.944Z,26.29
2019-05-26T14:40:17.518Z,25.90
2019-05-26T14:42:46.952Z,26.43
2019-05-26T14:45:16.790Z,26.39
2019-05-26T14:47:46.222Z,26.54
2019-05-26T14:50:16.353Z,26.34
2019-05-26T14:52:45.758Z,27.39
2019-05-26T14:55:15.489Z,27.04
2019-05-26T14:57:44.934Z,27.16
2019-05-26T15:00:15.103Z,27.29
2019-05-26T15:02:44.513Z,27.12
2019-05-26T15:05:14.268Z,27.20
2019-05-26T15:07:43.769Z,27.87
2019-05-26T15:10:13.604Z,27.56
2019-05-26T15:12:43.007Z,26.67
2019-05-26T15:15:12.692Z,26.89
2019-05-26T15:17:42.113Z,26.72
2019-05-26T15:20:13.564Z,26.51
2019-05-26T15:22:43.000Z,25.80
2019-05-26T15:25:12.716Z,26.39
2019-05-26T15:27:42.117Z,26.22
2019-05-26T15:30:12.161Z,26.92
2019-05-26T15:32:41.684Z,26.93
2019-05-26T15:35:12.502Z,28.40
2019-05-26T15:37:41.907Z,27.66
2019-05-26T15:40:13.041Z,27.22
2019-05-26T15:42:42.439Z,27.01
2019-05-26T15:45:12.219Z,26.50
2019-05-26T15:47:41.616Z,27.49
2019-05-26T15:50:13.774Z,28.40
2019-05-26T15:52:42.747Z,28.63
2019-05-26T15:55:12.837Z,29.25
2019-05-26T15:57:42.235Z,28.91
2019-05-26T16:00:12.095Z,28.83
2019-05-26T16:02:41.510Z,29.05
2019-05-26T16:05:11.242Z,28.38
2019-05-26T16:07:40.644Z,28.48
2019-05-26T16:10:10.680Z,29.13
2019-05-26T16:12:40.082Z,29.49
2019-05-26T16:15:09.833Z,29.59
2019-05-26T16:17:39.408Z,29.99
2019-05-26T16:20:09.523Z,28.44
2019-05-26T16:22:38.910Z,28.35
2019-05-26T16:25:08.802Z,28.58
2019-05-26T16:27:38.208Z,29.23
2019-05-26T16:30:09.725Z,29.19
2019-05-26T16:32:39.128Z,29.03
2019-05-26T16:35:08.881Z,29.63
2019-05-26T16:37:38.290Z,31.00
2019-05-26T16:40:08.255Z,31.57
2019-05-26T16:42:37.661Z,30.67
2019-05-26T16:45:07.955Z,30.80
2019-05-26T16:47:37.401Z,31.75
2019-05-26T16:50:08.671Z,32.16
2019-05-26T16:52:38.070Z,32.90
2019-05-26T16:55:08.228Z,32.72
2019-05-26T16:57:37.612Z,32.63
2019-05-26T17:00:09.168Z,33.22
2019-05-26T17:02:38.649Z,33.89
2019-05-26T17:05:08.583Z,33.11
2019-05-26T17:07:37.987Z,33.53
2019-05-26T17:10:08.053Z,33.59
2019-05-26T17:12:37.510Z,33.45
2019-05-26T17:15:08.269Z,33.71
2019-05-26T17:17:37.740Z,34.15
2019-05-26T17:20:08.487Z,34.55
2019-05-26T17:22:37.975Z,34.19
2019-05-26T17:25:08.009Z,34.53
2019-05-26T17:27:37.485Z,35.04
2019-05-26T17:30:08.022Z,35.27
2019-05-26T17:32:37.608Z,34.27
2019-05-26T17:35:08.563Z,33.97
2019-05-26T17:37:37.974Z,34.07
2019-05-26T17:40:07.944Z,34.80
2019-05-26T17:42:37.390Z,34.80
2019-05-26T17:45:07.835Z,34.51
2019-05-26T17:47:37.213Z,34.72
2019-05-26T17:50:08.863Z,34.91
2019-05-26T17:52:38.285Z,35.20
2019-05-26T17:55:08.733Z,34.80
2019-05-26T17:57:40.472Z,35.50
2019-05-26T18:00:14.448Z,34.66
2019-05-26T18:02:43.879Z,35.24
2019-05-26T18:05:13.649Z,35.60
2019-05-26T18:07:43.075Z,36.31
2019-05-26T18:10:14.029Z,36.00
2019-05-26T18:12:43.440Z,35.99
2019-05-26T18:15:13.175Z,36.11
2019-05-26T18:17:47.541Z,36.52
2019-05-26T18:20:14.027Z,37.05
2019-05-26T18:22:43.675Z,36.72
2019-05-26T18:25:13.320Z,37.26
2019-05-26T18:27:42.732Z,37.29
2019-05-26T18:30:12.664Z,37.77
2019-05-26T18:32:42.082Z,38.00
2019-05-26T18:35:11.654Z,38.47
2019-05-26T18:37:41.068Z,38.92
2019-05-26T18:40:10.830Z,38.87
2019-05-26T18:42:40.274Z,39.46
2019-05-26T18:45:11.116Z,39.95
2019-05-26T18:47:40.614Z,39.98
2019-05-26T18:50:10.462Z,40.38
2019-05-26T18:52:39.899Z,40.55
2019-05-26T18:55:09.931Z,41.07
2019-05-26T18:57:39.414Z,41.17
2019-05-26T19:00:10.933Z,41.41
2019-05-26T19:02:40.341Z,41.57
2019-05-26T19:05:10.274Z,41.13
2019-05-26T19:07:39.694Z,41.64
2019-05-26T19:10:09.835Z,41.62
2019-05-26T19:12:39.239Z,41.94
2019-05-26T19:15:09.068Z,41.83
2019-05-26T19:17:38.489Z,41.89
2019-05-26T19:20:16.065Z,41.88
2019-05-26T19:22:40.243Z,42.08
2019-05-26T19:25:09.925Z,42.06
2019-05-26T19:27:39.347Z,42.77
2019-05-26T19:30:10.885Z,43.06
2019-05-26T19:32:40.286Z,43.29
2019-05-26T19:35:09.988Z,44.15
2019-05-26T19:37:39.415Z,44.54
2019-05-26T19:40:09.473Z,44.77
2019-05-26T19:42:39.037Z,44.81
2019-05-26T19:45:09.281Z,45.03
2019-05-26T19:47:38.680Z,45.49
2019-05-26T19:50:08.834Z,45.43
2019-05-26T19:52:38.240Z,45.67
2019-05-26T19:55:07.822Z,46.07
2019-05-26T19:57:37.244Z,46.44
2019-05-26T20:00:12.737Z,46.56
2019-05-26T20:02:42.207Z,46.73
2019-05-26T20:05:12.071Z,46.71
2019-05-26T20:07:41.513Z,46.80
2019-05-26T20:10:11.472Z,47.16
2019-05-26T20:12:40.881Z,47.48
2019-05-26T20:15:11.546Z,47.63
2019-05-26T20:17:40.933Z,47.98
2019-05-26T20:20:11.251Z,48.33
2019-05-26T20:22:40.728Z,48.59
2019-05-26T20:25:10.989Z,49.06
2019-05-26T20:27:40.389Z,49.48
2019-05-26T20:30:10.936Z,49.80
2019-05-26T20:32:40.402Z,50.67
2019-05-26T20:35:11.159Z,51.08
2019-05-26T20:37:40.574Z,51.02
2019-05-26T20:40:10.625Z,51.48
2019-05-26T20:42:40.055Z,51.62
2019-05-26T20:45:09.666Z,51.95
2019-05-26T20:47:39.067Z,52.42
2019-05-26T20:50:09.910Z,52.75
2019-05-26T20:52:39.398Z,53.17
2019-05-26T20:55:09.539Z,53.42
2019-05-26T20:57:38.993Z,53.67
2019-05-26T21:00:11.509Z,53.97
2019-05-26T21:02:41.989Z,54.05
2019-05-26T21:05:11.953Z,54.34
2019-05-26T21:07:41.381Z,54.29
2019-05-26T21:10:11.011Z,54.46
2019-05-26T21:12:40.568Z,54.74
2019-05-26T21:15:10.536Z,55.04
2019-05-26T21:17:39.930Z,54.90
2019-05-26T21:20:09.962Z,55.06
2019-05-26T21:22:39.423Z,54.88
2019-05-26T21:25:09.280Z,54.02
2019-05-26T21:27:38.666Z,53.71
2019-05-26T21:30:08.633Z,53.47
2019-05-26T21:32:38.041Z,54.03
2019-05-26T21:35:07.970Z,54.11
2019-05-26T21:37:37.423Z,54.21
2019-05-26T21:40:08.464Z,54.12
2019-05-26T21:42:37.880Z,54.25
2019-05-26T21:45:08.214Z,54.72
2019-05-26T21:47:37.796Z,55.16
2019-05-26T21:50:09.211Z,55.50
2019-05-26T21:52:38.690Z,55.87
2019-05-26T21:55:08.719Z,55.99
2019-05-26T21:57:38.122Z,56.50
2019-05-26T22:00:10.802Z,56.58
2019-05-26T22:02:40.293Z,56.99
2019-05-26T22:05:10.559Z,57.40
2019-05-26T22:07:40.020Z,57.45
2019-05-26T22:10:09.552Z,57.59
2019-05-26T22:12:38.966Z,58.04
2019-05-26T22:15:09.197Z,58.40
2019-05-26T22:17:38.619Z,59.00
2019-05-26T22:20:08.360Z,59.31
2019-05-26T22:22:37.757Z,59.82
2019-05-26T22:25:07.505Z,59.67
2019-05-26T22:27:36.927Z,59.91
2019-05-26T22:30:08.229Z,60.31
2019-05-26T22:32:37.646Z,60.59
2019-05-26T22:35:08.175Z,60.41
2019-05-26T22:37:37.618Z,60.73
2019-05-26T22:40:08.359Z,61.06
2019-05-26T22:42:37.808Z,61.30
2019-05-26T22:45:09.480Z,61.39
2019-05-26T22:47:38.849Z,61.61
2019-05-26T22:50:08.881Z,61.68
2019-05-26T22:52:38.321Z,62.14
2019-05-26T22:55:08.666Z,62.61
2019-05-26T22:57:38.147Z,63.04
2019-05-26T23:00:09.954Z,63.59
2019-05-26T23:02:39.419Z,63.71
2019-05-26T23:05:09.094Z,63.73
2019-05-26T23:07:38.516Z,64.10
2019-05-26T23:10:08.443Z,64.23
2019-05-26T23:12:38.017Z,64.79
2019-05-26T23:15:08.262Z,64.86
2019-05-26T23:17:37.772Z,65.40
2019-05-26T23:20:09.152Z,65.61
2019-05-26T23:22:38.562Z,65.77
2019-05-26T23:25:08.607Z,65.94
2019-05-26T23:27:38.005Z,66.23
2019-05-26T23:30:08.346Z,66.55
2019-05-26T23:32:37.833Z,66.51
2019-05-26T23:35:07.949Z,66.57
2019-05-26T23:37:37.444Z,66.55
2019-05-26T23:40:07.350Z,66.09
2019-05-26T23:42:36.858Z,66.19
2019-05-26T23:45:09.036Z,66.08
2019-05-26T23:47:38.440Z,66.53
2019-05-26T23:50:08.170Z,66.54
2019-05-26T23:52:37.636Z,66.80
2019-05-26T23:55:07.993Z,67.06
2019-05-26T23:57:37.500Z,67.30
